FAB470 SLTJ-SLAL
Flight info
| Callsign | FAB470 |
|---|---|
| Flight time | N/A |
| Altitude | 19000 |
| Route | SLTJ SID KOTKI1 KOTKI DCT ALC |
| Aircraft | DA62/L-VGD/A |
Departure
| Time | N/A |
|---|---|
| Airport | Capitan Oriel Lea Plaza Airport (SLTJ) |
Arrival
| Time | 2026-05-03 20:46 |
|---|---|
| Airport | Alcantarí International Airport (SLAL) |
| Time | Latitude | Longitude | Altitude | Speed | Heading |
|---|---|---|---|---|---|
| 2026-05-03 20:46 | -19.24664 | -65.14964 | 0 ft | 0 kts | 43° |
| 2026-05-03 20:50 | -19.24702 | -65.14917 | 0 ft | 16 kts | 172° |
| 2026-05-03 20:51 | -19.24806 | -65.14872 | 0 ft | 18 kts | 123° |
| 2026-05-03 20:51 | -19.24816 | -65.14847 | 0 ft | 0 kts | 106° |
| 2026-05-03 21:10 | -19.24820 | -65.14827 | 0 ft | 13 kts | 88° |
| 2026-05-03 21:10 | -19.24660 | -65.14768 | 0 ft | 51 kts | 346° |
| 2026-05-03 21:10 | -19.24133 | -65.14863 | 0 ft | 101 kts | 347° |
| 2026-05-03 21:11 | -19.23334 | -65.15018 | 0 ft | 129 kts | 343° |
| 2026-05-03 21:11 | -19.22455 | -65.15197 | 0 ft | 130 kts | 1° |
| 2026-05-03 21:11 | -19.21723 | -65.14666 | 0 ft | 142 kts | 70° |
| 2026-05-03 21:11 | -19.21803 | -65.13613 | 0 ft | 151 kts | 118° |
| 2026-05-03 21:12 | -19.22736 | -65.13172 | 0 ft | 163 kts | 174° |
| 2026-05-03 21:12 | -19.23929 | -65.13026 | 0 ft | 180 kts | 176° |
| 2026-05-03 21:12 | -19.25189 | -65.12860 | 0 ft | 188 kts | 178° |
| 2026-05-03 21:12 | -19.26465 | -65.12784 | 0 ft | 188 kts | 175° |
| 2026-05-03 21:13 | -19.27754 | -65.12554 | 0 ft | 175 kts | 171° |
| 2026-05-03 21:13 | -19.28700 | -65.12428 | 0 ft | 111 kts | 184° |
| 2026-05-03 21:13 | -19.29387 | -65.12423 | 0 ft | 94 kts | 181° |
| 2026-05-03 21:13 | -19.30066 | -65.12407 | 0 ft | 104 kts | 182° |
| 2026-05-03 21:14 | -19.30838 | -65.12453 | 0 ft | 116 kts | 193° |
| 2026-05-03 21:14 | -19.31598 | -65.12625 | 0 ft | 101 kts | 199° |
| 2026-05-03 21:14 | -19.32261 | -65.12796 | 0 ft | 110 kts | 174° |
| 2026-05-03 21:14 | -19.32635 | -65.12307 | 0 ft | 147 kts | 87° |
| 2026-05-03 21:15 | -19.32314 | -65.11225 | 0 ft | 149 kts | 77° |
| 2026-05-03 21:15 | -19.32138 | -65.10196 | 0 ft | 149 kts | 75° |
| 2026-05-03 21:15 | -19.31534 | -65.10096 | 0 ft | 118 kts | 290° |
| 2026-05-03 21:16 | -19.31292 | -65.10705 | 0 ft | 69 kts | 289° |
| 2026-05-03 21:16 | -19.31125 | -65.11273 | 0 ft | 87 kts | 265° |
| 2026-05-03 21:16 | -19.31199 | -65.11911 | 0 ft | 82 kts | 264° |
| 2026-05-03 21:16 | -19.31203 | -65.12511 | 0 ft | 79 kts | 259° |
| 2026-05-03 21:17 | -19.31215 | -65.12578 | 0 ft | 0 kts | 251° |